Los Angeles, California
Current Conditions -  °F | °C
As of 9:47 PM on Tuesday 27 Jan 2015 (Local Time) from KCQT Reporting Station
Clear Clear  
Wind Chill: 59°   Ceiling: Unl
Heat Index: 59°   Visibility: 10mi
Dew Point: 53°   Wind: 0mph
Humidity: 81%   Direction: NA
Pressure: 30.16"   Gusts: NA
Location:  34.05°N, 118.24°W
Report Text: KCQT 280547Z AUTO 00000KT 10SM CLR 15/12 A3016 RMK AO2 SLP212 T01500117 10206 20150 58001 $
Loading
Personal Weather Stations






























Interactive Weather Map New forecast layout! Learn more

10-Day Weather Forecast

Advertisements
Track Severe Weather on mobile